Time;durP1;ratioP1;P1;durP2;ratioP2;P2;SDS_P1;SDS_P2;PMS_P1;PMS_P2;Temp;Humidity;BMP_temperature;BMP_pressure;BME280_temperature;BME280_humidity;BME280_pressure;Samples;Min_cycle;Max_cycle;Signal;HPM_P1;HPM_P2
2022/03/27 00:00:13;;;;;;;8.35;5.40;;;;;;;11.09;67.24;103083.25;5080236;28;20272;-84
2022/03/27 00:02:39;;;;;;;9.48;5.47;;;;;;;11.16;66.95;103080.56;5079886;28;20551;-84
2022/03/27 00:05:05;;;;;;;7.28;4.95;;;;;;;11.15;66.64;103086.75;5079699;28;20028;-84
2022/03/27 00:07:30;;;;;;;9.88;5.10;;;;;;;11.07;67.49;103077.97;5075148;28;20031;-84
2022/03/27 00:09:55;;;;;;;10.80;5.20;;;;;;;11.10;66.15;103085.91;5081092;28;20054;-84
2022/03/27 00:12:21;;;;;;;7.47;4.80;;;;;;;11.06;65.55;103077.97;5079942;28;20024;-84
2022/03/27 00:14:46;;;;;;;8.18;5.28;;;;;;;11.06;65.07;103080.63;5079716;28;20031;-84
2022/03/27 00:17:11;;;;;;;8.38;5.20;;;;;;;11.02;65.83;103078.88;5080558;28;20019;-84
2022/03/27 00:19:37;;;;;;;7.35;5.05;;;;;;;10.89;66.41;103083.38;5077149;28;20403;-84
2022/03/27 00:22:03;;;;;;;9.82;5.07;;;;;;;10.87;65.79;103085.16;5078259;28;20040;-84
2022/03/27 00:24:29;;;;;;;7.72;5.13;;;;;;;10.82;66.48;103086.91;5077464;28;20086;-84
2022/03/27 00:26:55;;;;;;;7.68;5.07;;;;;;;10.76;66.90;103087.84;5076150;28;20427;-84
2022/03/27 00:29:22;;;;;;;9.07;5.60;;;;;;;10.76;66.89;103089.59;5074451;28;20118;-84
2022/03/27 00:31:47;;;;;;;7.22;5.28;;;;;;;10.82;66.50;103085.19;5080024;28;20032;-85
2022/03/27 00:34:13;;;;;;;10.23;5.70;;;;;;;10.84;65.80;103082.50;5077379;28;20504;-84
2022/03/27 00:36:38;;;;;;;7.18;5.00;;;;;;;10.89;65.58;103081.59;5078339;28;20162;-84
2022/03/27 00:39:03;;;;;;;10.88;5.78;;;;;;;10.92;66.29;103081.59;5078844;28;20051;-84
2022/03/27 00:41:30;;;;;;;9.73;5.18;;;;;;;10.98;66.29;103078.03;5079414;28;20541;-85
2022/03/27 00:43:56;;;;;;;7.70;5.35;;;;;;;10.99;66.10;103090.34;5077098;28;20024;-84
2022/03/27 00:46:21;;;;;;;8.40;5.10;;;;;;;10.98;66.23;103094.78;5077336;28;20403;-85
2022/03/27 00:48:47;;;;;;;8.15;5.18;;;;;;;10.95;66.76;103080.66;5081219;28;20043;-84
2022/03/27 00:51:13;;;;;;;9.35;4.93;;;;;;;10.95;67.21;103078.03;5079669;28;20541;-84
2022/03/27 00:53:38;;;;;;;6.68;5.15;;;;;;;10.95;66.98;103085.97;5080844;28;20441;-84
2022/03/27 00:56:04;;;;;;;8.20;4.93;;;;;;;10.94;66.77;103087.75;5079102;28;20392;-84
2022/03/27 00:58:29;;;;;;;7.28;5.20;;;;;;;10.78;66.56;103072.84;5078306;28;20467;-84
2022/03/27 01:00:55;;;;;;;8.20;5.20;;;;;;;10.78;66.83;103079.91;5077899;28;20074;-84
2022/03/27 01:03:26;;;;;;;6.03;4.55;;;;;;;10.69;67.46;103079.06;5076928;28;20479;-84
2022/03/27 01:05:52;;;;;;;9.23;5.35;;;;;;;10.64;66.75;103075.56;5079070;28;20793;-84
2022/03/27 01:09:35;;;;;;;7.25;5.18;;;;;;;10.65;68.33;103076.44;5074582;28;20029;-84
2022/03/27 01:11:12;;;;;;;7.78;5.45;;;;;;;10.56;69.36;103072.06;5079039;28;20051;-84
2022/03/27 01:13:42;;;;;;;7.25;5.00;;;;;;;10.54;67.93;103083.53;5078434;28;20051;-84
2022/03/27 01:16:14;;;;;;;8.75;5.30;;;;;;;10.54;68.61;103072.94;5079351;28;20039;-84
2022/03/27 01:18:41;;;;;;;7.45;4.93;;;;;;;10.55;70.05;103075.59;5078750;28;20012;-84
2022/03/27 01:21:07;;;;;;;8.15;5.45;;;;;;;10.51;68.83;103070.31;5082330;28;20046;-84
2022/03/27 01:23:34;;;;;;;7.70;5.10;;;;;;;10.55;68.55;103067.66;5081140;28;20035;-84
2022/03/27 01:25:59;;;;;;;10.00;5.95;;;;;;;10.53;68.67;103063.25;5084930;28;20093;-84
2022/03/27 01:28:25;;;;;;;12.80;5.93;;;;;;;10.48;68.61;103063.28;5082060;28;20023;-85
2022/03/27 01:30:50;;;;;;;11.05;5.85;;;;;;;10.42;69.32;103064.19;5081164;28;20351;-84
2022/03/27 01:33:15;;;;;;;9.02;5.95;;;;;;;10.40;68.88;103065.09;5079574;28;20479;-84
2022/03/27 01:35:41;;;;;;;8.65;5.97;;;;;;;10.40;69.20;103057.16;5083155;28;20028;-84
2022/03/27 01:38:06;;;;;;;11.32;5.65;;;;;;;10.38;69.57;103067.72;5080585;28;20016;-84
2022/03/27 01:40:31;;;;;;;7.65;5.57;;;;;;;10.30;69.22;103058.94;5078893;28;20400;-84
2022/03/27 01:42:57;;;;;;;12.20;5.75;;;;;;;10.33;69.84;103069.50;5082569;28;20062;-84
2022/03/27 01:45:22;;;;;;;9.88;5.90;;;;;;;10.30;69.18;103073.91;5082003;28;20029;-84
2022/03/27 01:47:48;;;;;;;7.53;5.07;;;;;;;10.21;69.39;103067.75;5079180;28;20038;-84
2022/03/27 01:50:14;;;;;;;9.00;6.00;;;;;;;10.17;69.82;103062.50;5077576;28;20036;-84
2022/03/27 01:52:39;;;;;;;8.48;5.80;;;;;;;10.15;69.94;103072.16;5080520;28;20036;-84
2022/03/27 01:55:10;;;;;;;9.38;6.10;;;;;;;10.11;70.59;103066.00;5081144;28;20100;-85
2022/03/27 01:57:36;;;;;;;8.90;5.60;;;;;;;10.12;69.77;103074.84;5079290;28;20031;-83
2022/03/27 02:00:04;;;;;;;10.98;6.50;;;;;;;10.04;69.90;103064.28;5076876;28;20032;-84
2022/03/27 02:02:29;;;;;;;8.68;6.00;;;;;;;10.03;70.04;103074.84;5081774;28;20027;-84
2022/03/27 02:04:55;;;;;;;8.55;6.18;;;;;;;9.98;70.11;103072.22;5084036;28;20032;-84
2022/03/27 02:07:23;;;;;;;9.77;7.03;;;;;;;9.94;70.88;103066.06;5081471;28;20119;-84
2022/03/27 02:09:49;;;;;;;8.93;6.18;;;;;;;9.90;70.93;103068.72;5078579;28;20042;-84
2022/03/27 02:12:15;;;;;;;7.95;5.97;;;;;;;9.82;70.70;103062.53;5081764;28;20027;-84
2022/03/27 02:14:40;;;;;;;8.95;6.50;;;;;;;9.84;71.20;103068.69;5081406;28;20286;-84
2022/03/27 02:17:07;;;;;;;12.23;6.53;;;;;;;9.74;71.43;103064.31;5080761;28;20119;-84
2022/03/27 02:19:33;;;;;;;9.95;6.60;;;;;;;9.68;71.47;103070.47;5082073;28;20020;-84
2022/03/27 02:21:58;;;;;;;11.27;7.25;;;;;;;9.59;72.24;103073.13;5080176;28;20028;-83
2022/03/27 02:24:23;;;;;;;9.68;6.20;;;;;;;9.57;72.33;103070.50;5081126;28;20032;-84
2022/03/27 02:26:50;;;;;;;9.48;6.70;;;;;;;9.55;71.78;103069.59;5082235;28;20892;-84
2022/03/27 02:29:16;;;;;;;9.63;6.90;;;;;;;9.47;72.52;103059.94;5083405;28;20035;-83
2022/03/27 02:31:42;;;;;;;10.35;7.20;;;;;;;9.44;72.84;103055.53;5079480;28;20472;-84
2022/03/27 02:34:08;;;;;;;10.80;7.10;;;;;;;9.48;72.84;103065.22;5079146;28;20020;-83
2022/03/27 02:36:33;;;;;;;10.75;7.00;;;;;;;9.44;73.07;103056.41;5081896;28;20032;-84
2022/03/27 02:38:58;;;;;;;9.93;7.50;;;;;;;9.51;73.46;103059.91;5079414;28;20036;-83
2022/03/27 02:41:24;;;;;;;11.80;7.65;;;;;;;9.52;74.01;103063.47;5082504;28;20058;-83
2022/03/27 02:43:50;;;;;;;13.35;8.38;;;;;;;9.58;73.58;103066.09;5078000;28;20057;-83
2022/03/27 02:46:15;;;;;;;15.93;9.07;;;;;;;9.69;73.48;103065.19;5082302;28;20039;-84
2022/03/27 02:48:41;;;;;;;13.98;8.50;;;;;;;9.80;73.17;103074.88;5080757;28;20020;-84
2022/03/27 02:51:06;;;;;;;13.38;9.30;;;;;;;9.83;73.25;103069.59;5081363;28;20061;-83
2022/03/27 02:53:32;;;;;;;17.70;10.98;;;;;;;9.82;73.68;103075.75;5080434;28;20489;-83
2022/03/27 02:55:57;;;;;;;15.00;10.20;;;;;;;9.77;74.48;103064.31;5080416;28;20027;-84
2022/03/27 02:58:22;;;;;;;15.82;10.13;;;;;;;9.80;74.41;103072.25;5080877;28;20495;-83
2022/03/27 03:00:48;;;;;;;14.98;10.05;;;;;;;9.81;74.08;103071.34;5078190;28;20085;-84
2022/03/27 03:03:13;;;;;;;15.90;10.32;;;;;;;9.74;74.85;103064.31;5081793;28;20886;-83
2022/03/27 03:05:40;;;;;;;15.45;9.40;;;;;;;9.76;74.74;103067.84;5080740;28;20185;-84
2022/03/27 03:08:06;;;;;;;14.32;10.30;;;;;;;9.67;74.57;103051.13;5080591;28;20356;-84
2022/03/27 03:10:32;;;;;;;16.85;10.18;;;;;;;9.75;74.67;103052.88;5078987;28;20047;-84
2022/03/27 03:12:58;;;;;;;14.70;10.75;;;;;;;9.87;74.27;103064.28;5079181;28;20044;-84
2022/03/27 03:15:23;;;;;;;15.30;10.23;;;;;;;9.88;74.46;103060.75;5079270;28;20031;-83
2022/03/27 03:17:49;;;;;;;16.48;10.48;;;;;;;9.94;74.05;103055.50;5081792;28;20080;-83
2022/03/27 03:20:15;;;;;;;15.10;9.55;;;;;;;9.88;74.44;103042.25;5083314;28;20053;-83
2022/03/27 03:22:41;;;;;;;19.42;10.50;;;;;;;9.84;75.01;103052.84;5078391;28;20826;-83
2022/03/27 03:25:07;;;;;;;17.77;12.10;;;;;;;9.81;75.10;103047.59;5078846;28;20526;-83
2022/03/27 03:27:32;;;;;;;19.38;11.60;;;;;;;9.84;75.04;103048.47;5079025;28;20115;-83
2022/03/27 03:29:58;;;;;;;19.40;11.15;;;;;;;9.87;74.86;103045.78;5080252;28;20146;-83
2022/03/27 03:32:23;;;;;;;19.38;10.82;;;;;;;9.89;74.52;103046.69;5081203;28;20106;-84
2022/03/27 03:34:49;;;;;;;17.13;10.98;;;;;;;9.96;74.20;103047.53;5078553;28;20020;-83
2022/03/27 03:37:14;;;;;;;18.38;10.63;;;;;;;10.01;73.93;103040.47;5080784;28;20360;-83
2022/03/27 03:39:39;;;;;;;13.95;10.02;;;;;;;9.99;74.39;103046.69;5076974;28;20496;-83
2022/03/27 03:42:06;;;;;;;19.13;10.45;;;;;;;10.02;73.71;103051.94;5079716;28;20048;-83
2022/03/27 03:44:31;;;;;;;17.08;11.18;;;;;;;10.04;73.77;103045.78;5077053;28;20028;-83
2022/03/27 03:46:57;;;;;;;15.07;9.85;;;;;;;10.06;73.82;103038.72;5080694;28;20055;-84
2022/03/27 03:49:23;;;;;;;21.05;12.10;;;;;;;10.02;74.35;103042.25;5077294;28;20456;-83
2022/03/27 03:51:49;;;;;;;16.05;10.90;;;;;;;9.92;74.84;103048.44;5082736;28;20074;-83
2022/03/27 03:54:14;;;;;;;16.15;10.82;;;;;;;9.87;74.53;103052.84;5079543;28;20036;-83
2022/03/27 03:56:40;;;;;;;17.88;11.18;;;;;;;9.83;74.89;103037.88;5081755;28;20083;-83
2022/03/27 03:59:05;;;;;;;18.00;11.75;;;;;;;9.80;74.99;103051.13;5081093;28;20032;-84
2022/03/27 04:01:30;;;;;;;16.70;11.50;;;;;;;9.70;75.40;103045.84;5075044;28;20467;-83
2022/03/27 04:03:56;;;;;;;16.15;11.30;;;;;;;9.73;75.35;103052.00;5080363;28;20024;-84
2022/03/27 04:06:22;;;;;;;17.20;11.55;;;;;;;9.77;75.42;103051.97;5080916;28;20042;-83
2022/03/27 04:08:48;;;;;;;19.60;12.20;;;;;;;9.80;75.44;103052.00;5080687;28;20507;-84
2022/03/27 04:11:16;;;;;;;20.60;11.90;;;;;;;9.89;74.65;103054.63;5076867;28;20020;-83
2022/03/27 04:13:43;;;;;;;18.65;11.38;;;;;;;9.86;74.15;103051.09;5079720;28;20121;-83
2022/03/27 04:16:09;;;;;;;19.27;12.73;;;;;;;9.93;74.09;103042.25;5077372;28;20033;-83
2022/03/27 04:18:34;;;;;;;18.48;12.50;;;;;;;9.95;74.34;103045.78;5080619;28;20035;-83
2022/03/27 04:21:00;;;;;;;17.75;12.90;;;;;;;9.92;74.76;103051.06;5075500;28;20055;-83
2022/03/27 04:23:25;;;;;;;18.17;11.65;;;;;;;9.81;75.24;103051.09;5081125;28;20483;-83
2022/03/27 04:25:50;;;;;;;17.98;12.40;;;;;;;9.67;75.64;103047.59;5077892;28;20024;-83
2022/03/27 04:28:15;;;;;;;23.35;13.55;;;;;;;9.60;75.90;103046.69;5079246;28;20387;-83
2022/03/27 04:30:41;;;;;;;21.38;12.88;;;;;;;9.50;76.01;103041.44;5080866;28;20028;-83
2022/03/27 04:33:08;;;;;;;22.17;13.40;;;;;;;9.46;76.34;103040.56;5079914;28;20040;-83
2022/03/27 04:35:34;;;;;;;22.48;14.13;;;;;;;9.40;76.36;103048.47;5077484;28;20084;-84
2022/03/27 04:38:00;;;;;;;21.27;13.65;;;;;;;9.39;76.54;103046.72;5081361;28;20386;-84
2022/03/27 04:40:25;;;;;;;23.63;13.90;;;;;;;9.45;76.50;103057.28;5078159;28;20036;-83
2022/03/27 04:42:51;;;;;;;22.95;14.70;;;;;;;9.50;76.25;103052.00;5077916;28;20115;-83
2022/03/27 04:45:17;;;;;;;24.45;13.52;;;;;;;9.56;76.22;103049.34;5078241;28;20544;-83
2022/03/27 04:47:42;;;;;;;25.30;15.07;;;;;;;9.51;76.32;103054.63;5080337;28;20039;-84
2022/03/27 04:50:08;;;;;;;23.90;14.27;;;;;;;9.49;76.36;103053.75;5080430;28;20507;-84
2022/03/27 04:52:34;;;;;;;26.20;14.35;;;;;;;9.58;76.23;103050.25;5079944;28;20039;-83
2022/03/27 04:55:00;;;;;;;24.98;14.23;;;;;;;9.66;76.55;103059.06;5085899;28;20103;-83
2022/03/27 04:57:32;;;;;;;25.35;14.73;;;;;;;9.68;76.05;103054.63;5083352;28;20020;-84
2022/03/27 04:59:57;;;;;;;26.02;13.95;;;;;;;9.58;75.76;103051.13;5084118;28;20028;-84
2022/03/27 05:02:23;;;;;;;22.38;13.27;;;;;;;9.58;75.64;103060.81;5081888;28;20031;-84
2022/03/27 05:04:49;;;;;;;23.27;14.30;;;;;;;9.55;75.64;103061.69;5081829;28;20538;-83
2022/03/27 05:07:14;;;;;;;20.90;11.85;;;;;;;9.52;75.70;103066.97;5082523;28;20073;-84
2022/03/27 05:09:39;;;;;;;21.70;12.95;;;;;;;9.55;75.42;103066.97;5083006;28;20047;-83
2022/03/27 05:12:05;;;;;;;22.42;13.00;;;;;;;9.50;75.40;103067.84;5079823;28;20043;-83
2022/03/27 05:14:30;;;;;;;22.52;12.30;;;;;;;9.56;74.89;103071.38;5082602;28;20483;-83
2022/03/27 05:16:56;;;;;;;20.27;12.82;;;;;;;9.53;75.08;103079.28;5080677;28;20480;-83
2022/03/27 05:19:21;;;;;;;22.05;12.90;;;;;;;9.52;75.23;103068.75;5083374;28;20024;-83
2022/03/27 05:21:46;;;;;;;21.52;12.15;;;;;;;9.52;74.82;103071.38;5079062;28;20800;-83
2022/03/27 05:24:11;;;;;;;21.38;12.27;;;;;;;9.52;75.41;103081.94;5080982;28;20111;-83
2022/03/27 05:26:37;;;;;;;24.45;14.00;;;;;;;9.41;76.01;103079.28;5079816;28;20338;-83
2022/03/27 05:29:05;;;;;;;23.95;13.55;;;;;;;9.42;75.99;103081.06;5083139;28;20024;-83
2022/03/27 05:31:30;;;;;;;22.73;12.75;;;;;;;9.40;75.78;103082.81;5082625;28;20054;-83
2022/03/27 05:33:56;;;;;;;21.85;12.60;;;;;;;9.39;75.69;103075.78;5083767;28;20024;-83
2022/03/27 05:36:21;;;;;;;24.73;13.70;;;;;;;9.44;75.76;103084.56;5084559;28;20042;-83
2022/03/27 05:38:47;;;;;;;23.52;13.48;;;;;;;9.46;75.24;103085.44;5085287;28;20043;-83
2022/03/27 05:41:13;;;;;;;23.73;12.82;;;;;;;9.50;75.71;103089.84;5080754;28;20051;-83
2022/03/27 05:43:38;;;;;;;22.83;13.23;;;;;;;9.51;74.96;103081.03;5084800;28;20061;-83
2022/03/27 05:46:04;;;;;;;25.92;12.88;;;;;;;9.42;75.30;103086.34;5084291;28;20081;-83
2022/03/27 05:48:29;;;;;;;22.85;12.43;;;;;;;9.32;75.63;103074.00;5080980;28;20035;-84
2022/03/27 05:50:54;;;;;;;24.30;12.75;;;;;;;9.27;75.58;103091.59;5080565;28;20101;-84
2022/03/27 05:53:20;;;;;;;25.95;12.27;;;;;;;9.17;76.23;103088.06;5083034;28;20038;-83
2022/03/27 05:55:47;;;;;;;23.55;11.20;;;;;;;9.14;76.25;103083.66;5081657;28;20036;-83
2022/03/27 05:58:12;;;;;;;25.42;12.70;;;;;;;9.12;76.35;103092.44;5082038;28;20035;-83
2022/03/27 06:00:38;;;;;;;33.08;13.32;;;;;;;9.07;76.91;103095.06;5081535;28;20035;-84
2022/03/27 06:03:03;;;;;;;28.90;12.90;;;;;;;9.05;76.93;103096.84;5080631;28;20028;-83
2022/03/27 06:05:28;;;;;;;28.02;13.43;;;;;;;9.12;76.79;103103.88;5079405;28;20039;-84
2022/03/27 06:07:56;;;;;;;29.10;14.25;;;;;;;9.15;77.08;103108.28;5081960;28;20024;-84
2022/03/27 06:10:26;;;;;;;32.15;13.68;;;;;;;9.10;76.97;103103.00;5084195;28;20043;-84
2022/03/27 06:12:52;;;;;;;29.75;12.55;;;;;;;9.00;76.98;103106.50;5082624;28;20028;-84
2022/03/27 06:15:19;;;;;;;26.40;13.32;;;;;;;8.99;76.99;103109.13;5082933;28;20032;-84
2022/03/27 06:17:46;;;;;;;28.42;14.07;;;;;;;9.04;77.02;103108.25;5083758;28;20530;-83
2022/03/27 06:20:14;;;;;;;31.48;13.57;;;;;;;9.05;77.43;103107.41;5084359;28;20028;-84
2022/03/27 06:22:40;;;;;;;29.70;14.20;;;;;;;9.07;77.38;103115.31;5080252;28;20027;-84
2022/03/27 06:25:10;;;;;;;31.77;14.10;;;;;;;9.02;77.64;103114.41;5084254;28;20030;-83
2022/03/27 06:27:36;;;;;;;29.35;13.93;;;;;;;9.05;77.25;103112.69;5080006;28;20536;-83
2022/03/27 06:30:06;;;;;;;31.17;13.68;;;;;;;9.04;77.19;103117.94;5083149;28;20036;-83
2022/03/27 06:32:32;;;;;;;30.42;14.15;;;;;;;8.98;77.59;103113.50;5080044;28;20194;-83
2022/03/27 06:34:58;;;;;;;31.85;14.38;;;;;;;8.99;77.89;103123.19;5080975;28;20035;-84
2022/03/27 06:37:27;;;;;;;31.70;14.50;;;;;;;9.08;77.56;103111.78;5082154;28;20054;-84
2022/03/27 06:39:56;;;;;;;31.08;13.75;;;;;;;9.16;77.23;103113.56;5080239;28;20020;-84
2022/03/27 06:42:23;;;;;;;35.80;15.02;;;;;;;9.14;77.23;103114.47;5080508;28;20139;-84
2022/03/27 06:44:48;;;;;;;30.52;14.02;;;;;;;9.14;77.01;103119.75;5083656;28;20178;-84
2022/03/27 06:47:14;;;;;;;32.50;15.23;;;;;;;9.11;77.40;103117.09;5079847;28;20483;-84
2022/03/27 06:49:40;;;;;;;33.08;14.45;;;;;;;9.22;77.29;103114.44;5081801;28;20036;-84
2022/03/27 06:52:06;;;;;;;50.92;18.55;;;;;;;9.24;77.05;103120.63;5079217;28;20514;-83
2022/03/27 06:54:32;;;;;;;37.55;17.17;;;;;;;9.19;77.21;103116.22;5083458;28;20031;-83
2022/03/27 06:56:57;;;;;;;39.25;16.00;;;;;;;9.12;77.33;103117.06;5078185;28;20034;-84
2022/03/27 06:59:23;;;;;;;39.88;17.67;;;;;;;9.16;77.33;103108.28;5082481;28;20495;-83
2022/03/27 07:04:32;;;;;;;38.42;17.35;;;;;;;9.20;77.50;103112.69;5081085;28;20510;-83
2022/03/27 07:06:58;;;;;;;38.15;16.65;;;;;;;9.30;76.63;103118.88;5081679;28;20031;-83
2022/03/27 07:09:23;;;;;;;34.78;16.48;;;;;;;9.41;76.62;103111.84;5076321;28;20032;-84
2022/03/27 07:11:49;;;;;;;38.85;17.98;;;;;;;9.47;75.82;103116.28;5077499;28;20486;-84
2022/03/27 07:14:14;;;;;;;34.67;15.73;;;;;;;9.52;76.06;103114.50;5075753;28;20032;-84
2022/03/27 07:16:42;;;;;;;36.08;15.68;;;;;;;9.50;75.47;103118.00;5080733;28;20400;-84
2022/03/27 07:19:10;;;;;;;28.05;14.32;;;;;;;9.40;75.61;103122.41;5078931;28;20043;-84
2022/03/27 07:21:36;;;;;;;34.13;14.05;;;;;;;9.48;75.74;103125.94;5075269;28;20024;-84
2022/03/27 07:24:01;;;;;;;28.15;13.13;;;;;;;9.48;75.29;103120.66;5076972;28;20032;-84
2022/03/27 07:26:26;;;;;;;28.30;14.30;;;;;;;9.47;75.65;103121.56;5074646;28;20537;-84
2022/03/27 07:28:52;;;;;;;30.50;13.68;;;;;;;9.44;75.66;103116.25;5073805;28;20081;-84
2022/03/27 07:31:17;;;;;;;31.67;14.75;;;;;;;9.45;76.00;103118.00;5082644;28;20036;-83
2022/03/27 07:33:42;;;;;;;28.40;13.45;;;;;;;9.51;75.44;103119.75;5076782;28;20031;-84
2022/03/27 07:36:08;;;;;;;30.88;13.00;;;;;;;9.48;75.56;103111.88;5078539;28;20040;-84
2022/03/27 07:38:34;;;;;;;31.48;13.88;;;;;;;9.42;75.60;103118.91;5097081;28;20024;-84
2022/03/27 07:41:00;;;;;;;29.83;14.25;;;;;;;9.45;75.50;103123.28;5077801;28;20056;-84
2022/03/27 07:43:25;;;;;;;31.45;13.55;;;;;;;9.49;75.12;103121.53;5079895;28;20030;-84
2022/03/27 07:45:50;;;;;;;26.98;12.77;;;;;;;9.63;74.99;103123.31;5080324;28;20426;-84
2022/03/27 07:48:16;;;;;;;31.33;14.77;;;;;;;9.76;74.13;103120.69;5077387;28;20039;-84
2022/03/27 07:50:41;;;;;;;32.58;15.13;;;;;;;9.83;74.35;103117.13;5082057;28;20448;-83
2022/03/27 07:53:07;;;;;;;30.52;15.20;;;;;;;9.92;73.22;103115.38;5081960;28;20024;-84
2022/03/27 07:55:33;;;;;;;37.50;15.43;;;;;;;10.00;72.86;103120.66;5080382;28;20127;-84
2022/03/27 07:57:59;;;;;;;33.28;15.75;;;;;;;10.00;73.66;103118.00;5079893;28;20023;-84
2022/03/27 08:00:27;;;;;;;31.23;15.35;;;;;;;10.05;73.11;103120.66;5081391;28;20024;-84
2022/03/27 08:02:53;;;;;;;28.63;14.85;;;;;;;10.08;72.88;103121.53;5079876;28;20024;-84
2022/03/27 08:05:18;;;;;;;33.60;16.23;;;;;;;10.04;72.78;103125.06;5078315;28;20039;-83
2022/03/27 08:07:45;;;;;;;34.58;15.25;;;;;;;9.99;72.77;103129.47;5078236;28;20028;-84
2022/03/27 08:10:11;;;;;;;29.73;13.73;;;;;;;9.86;72.87;103114.50;5078884;28;20402;-84
2022/03/27 08:12:36;;;;;;;29.63;15.00;;;;;;;9.96;72.71;103119.78;5078461;28;20028;-84
2022/03/27 08:15:04;;;;;;;28.30;14.80;;;;;;;9.92;72.56;103106.56;5080048;28;20039;-84
2022/03/27 08:17:29;;;;;;;28.17;14.55;;;;;;;9.88;72.38;103115.38;5079789;28;20476;-83
2022/03/27 08:19:54;;;;;;;25.55;13.77;;;;;;;9.84;72.15;103103.94;5081236;28;20016;-84
2022/03/27 08:22:20;;;;;;;29.02;14.88;;;;;;;9.92;72.54;103115.38;5077164;28;20028;-84
2022/03/27 08:24:46;;;;;;;32.85;15.77;;;;;;;10.02;71.91;103115.34;5077190;28;20021;-84
2022/03/27 08:27:11;;;;;;;31.40;14.98;;;;;;;10.08;71.74;103113.59;5075230;28;20390;-84
2022/03/27 08:29:38;;;;;;;28.73;14.82;;;;;;;10.08;71.66;103126.81;5080497;28;20035;-84
2022/03/27 08:32:07;;;;;;;26.50;13.82;;;;;;;10.05;71.78;103125.94;5082000;28;20028;-84
2022/03/27 08:34:34;;;;;;;28.33;13.48;;;;;;;10.06;71.69;103127.69;5081532;28;20074;-83
2022/03/27 08:37:02;;;;;;;26.25;11.80;;;;;;;10.08;71.47;103125.94;5082973;28;20400;-84
2022/03/27 08:39:28;;;;;;;23.45;12.30;;;;;;;10.11;71.51;103131.19;5083593;28;20558;-84
2022/03/27 08:41:55;;;;;;;22.30;11.60;;;;;;;9.97;71.79;103124.16;5082793;28;20123;-84
2022/03/27 08:44:22;;;;;;;21.95;11.35;;;;;;;9.98;71.41;103135.66;5084278;28;20036;-84
2022/03/27 08:46:50;;;;;;;26.45;11.45;;;;;;;9.92;71.71;103128.56;5085043;28;20542;-84
2022/03/27 08:49:15;;;;;;;19.40;10.38;;;;;;;9.90;71.74;103129.47;5084921;28;20095;-84
2022/03/27 08:51:54;;;;;;;23.60;11.88;;;;;;;9.96;72.16;103121.53;5079918;28;20402;-84
2022/03/27 08:54:23;;;;;;;20.52;11.27;;;;;;;10.00;71.88;103127.69;5084712;28;20843;-84
2022/03/27 08:57:04;;;;;;;21.40;10.85;;;;;;;10.16;71.37;103129.44;5083396;28;20077;-84
2022/03/27 08:59:32;;;;;;;19.57;11.70;;;;;;;10.13;70.92;103129.44;5081241;28;20387;-84
2022/03/27 09:01:58;;;;;;;22.13;11.27;;;;;;;10.19;71.30;103129.44;5080920;28;20028;-83
2022/03/27 09:04:24;;;;;;;26.02;12.65;;;;;;;10.22;71.28;103126.78;5085014;28;20031;-84
2022/03/27 09:06:49;;;;;;;23.17;11.93;;;;;;;10.25;70.54;103139.13;5086701;28;20467;-84
2022/03/27 09:09:15;;;;;;;22.25;11.25;;;;;;;10.23;70.82;103136.47;5088740;28;20466;-84
2022/03/27 09:11:42;;;;;;;25.63;12.35;;;;;;;10.28;70.84;103139.16;5092848;28;20031;-84
2022/03/27 09:14:10;;;;;;;23.42;11.98;;;;;;;10.34;70.88;103145.28;5091495;28;20059;-84
2022/03/27 09:17:01;;;;;;;24.27;12.73;;;;;;;10.45;70.73;103137.34;5090735;28;20022;-84
2022/03/27 09:19:43;;;;;;;21.70;13.23;;;;;;;10.44;70.37;103132.91;5090019;28;20043;-84
2022/03/27 09:22:13;;;;;;;26.08;13.30;;;;;;;10.51;70.11;103139.97;5097137;28;20034;-84
2022/03/27 09:24:38;;;;;;;22.77;12.00;;;;;;;10.61;69.99;103135.53;5093853;28;20486;-84
2022/03/27 09:27:05;;;;;;;23.95;12.52;;;;;;;10.63;69.86;103134.66;5087022;28;20056;-83
2022/03/27 09:29:54;;;;;;;26.02;12.48;;;;;;;10.80;69.45;103150.44;5097179;28;20118;-84
2022/03/27 09:32:31;;;;;;;24.95;13.05;;;;;;;10.87;69.23;103144.25;5086925;28;20039;-84
2022/03/27 09:34:59;;;;;;;22.65;12.50;;;;;;;10.81;68.61;103135.44;5089251;28;20027;-84
2022/03/27 09:37:33;;;;;;;23.83;12.95;;;;;;;10.80;68.69;103149.56;5093598;28;20032;-84
2022/03/27 09:39:59;;;;;;;24.00;11.40;;;;;;;10.76;69.16;103135.47;5091961;28;20039;-84
2022/03/27 09:42:25;;;;;;;20.98;11.57;;;;;;;10.81;69.27;103131.03;5085696;28;20043;-84
2022/03/27 09:45:15;;;;;;;22.35;11.70;;;;;;;10.99;68.70;103136.22;5093332;28;20029;-84
2022/03/27 09:47:43;;;;;;;22.13;11.85;;;;;;;11.33;68.29;103135.16;5085501;28;20031;-84
2022/03/27 09:50:27;;;;;;;21.75;12.95;;;;;;;11.56;66.15;103133.22;5095206;28;20039;-85
2022/03/27 09:52:52;;;;;;;24.77;13.85;;;;;;;11.97;65.38;103132.03;5087467;28;20032;-84
2022/03/27 09:55:18;;;;;;;25.48;12.30;;;;;;;12.36;63.86;103117.50;5099537;28;20050;-84
2022/03/27 09:57:43;;;;;;;20.77;12.13;;;;;;;13.39;62.44;103122.38;5085181;28;20540;-84
2022/03/27 10:00:14;;;;;;;18.02;10.75;;;;;;;15.40;56.97;103113.13;5095696;28;20066;-84
2022/03/27 10:02:41;;;;;;;19.13;11.48;;;;;;;16.37;52.49;103109.72;5091525;28;20032;-84
2022/03/27 10:05:11;;;;;;;19.83;11.30;;;;;;;16.47;53.15;103103.19;5098205;28;20027;-84
2022/03/27 10:07:45;;;;;;;18.13;10.60;;;;;;;16.90;51.72;103101.06;5087372;28;20030;-84
2022/03/27 10:10:22;;;;;;;19.17;11.70;;;;;;;17.34;52.64;103100.53;5090682;28;20032;-84
2022/03/27 10:12:50;;;;;;;19.45;11.82;;;;;;;18.67;47.24;103092.31;5087016;28;20038;-84
2022/03/27 10:15:17;;;;;;;17.63;11.15;;;;;;;19.09;45.79;103088.91;5095586;28;20112;-84
2022/03/27 10:17:48;;;;;;;16.70;10.38;;;;;;;19.96;46.03;103089.75;5098637;28;20583;-85
2022/03/27 10:20:16;;;;;;;18.48;11.80;;;;;;;21.47;41.18;103077.28;5087467;28;20394;-84
2022/03/27 10:22:52;;;;;;;18.70;11.85;;;;;;;22.55;40.50;103088.66;5083802;28;20024;-85
2022/03/27 10:25:18;;;;;;;22.70;12.10;;;;;;;22.85;36.10;103075.31;5085808;28;20024;-85
2022/03/27 10:27:45;;;;;;;18.20;11.43;;;;;;;23.50;36.97;103078.75;5085407;28;20047;-85
2022/03/27 10:30:13;;;;;;;16.10;11.38;;;;;;;24.01;34.07;103073.00;5079758;28;20380;-86
2022/03/27 10:32:40;;;;;;;17.50;11.48;;;;;;;24.73;33.39;103084.72;5090950;28;20496;-84
2022/03/27 10:35:24;;;;;;;16.73;11.43;;;;;;;24.82;36.69;103076.88;5084910;28;20471;-86
2022/03/27 10:38:26;;;;;;;15.48;11.23;;;;;;;25.21;35.87;103067.09;5097121;28;20055;-85
2022/03/27 10:41:06;;;;;;;15.38;10.90;;;;;;;25.53;35.78;103064.06;5097393;28;20063;-85
2022/03/27 10:43:57;;;;;;;16.15;11.05;;;;;;;25.57;34.14;103061.03;5086576;28;20048;-84
2022/03/27 10:46:28;;;;;;;17.95;12.48;;;;;;;24.32;33.24;103062.00;5090676;28;20015;-85
2022/03/27 10:49:16;;;;;;;14.93;11.63;;;;;;;24.46;35.84;103061.16;5092226;28;20498;-85
2022/03/27 10:51:44;;;;;;;15.93;10.55;;;;;;;24.75;31.67;103062.00;5083973;28;20024;-84
2022/03/27 10:54:12;;;;;;;14.65;11.02;;;;;;;25.21;32.91;103056.28;5087394;28;20166;-84
2022/03/27 10:56:40;;;;;;;16.52;11.68;;;;;;;25.50;30.85;103054.28;5097027;28;20055;-85
2022/03/27 10:59:08;;;;;;;16.05;11.70;;;;;;;24.94;31.19;103054.41;5089695;28;20537;-84
2022/03/27 11:01:42;;;;;;;16.67;11.77;;;;;;;24.69;33.50;103059.69;5084245;28;21440;-85
2022/03/27 11:04:10;;;;;;;16.85;11.32;;;;;;;24.52;32.36;103054.50;5077844;28;20024;-86
2022/03/27 11:06:47;;;;;;;15.70;12.13;;;;;;;24.67;33.25;103048.13;5079713;28;20035;-85
2022/03/27 11:09:33;;;;;;;16.17;11.70;;;;;;;24.80;34.12;103053.56;5079286;28;20500;-85
2022/03/27 11:12:04;;;;;;;17.48;11.75;;;;;;;24.75;31.67;103047.59;5077419;28;20464;-85
2022/03/27 11:14:52;;;;;;;14.15;11.07;;;;;;;24.77;33.93;103048.38;5077623;28;20036;-85
2022/03/27 11:17:35;;;;;;;16.23;12.20;;;;;;;24.37;33.26;103032.88;5080630;28;20031;-85
2022/03/27 11:20:04;;;;;;;16.02;11.82;;;;;;;23.91;33.21;103029.47;5080871;28;20024;-85